createdAt,value
2018-05-25T00:00:48.174Z,22.90
2018-05-25T00:03:16.449Z,24.23
2018-05-25T00:05:44.735Z,23.33
2018-05-25T00:08:12.251Z,24.30
2018-05-25T00:10:39.758Z,24.40
2018-05-25T00:13:07.264Z,23.27
2018-05-25T00:15:34.774Z,25.13
2018-05-25T00:18:02.291Z,24.33
2018-05-25T00:20:29.800Z,24.33
2018-05-25T00:22:57.308Z,24.60
2018-05-25T00:25:24.811Z,25.50
2018-05-25T00:27:52.319Z,25.60
2018-05-25T00:30:19.847Z,23.83
2018-05-25T00:32:47.351Z,24.33
2018-05-25T00:35:15.626Z,24.77
2018-05-25T00:37:43.162Z,24.92
2018-05-25T00:40:11.439Z,25.55
2018-05-25T00:42:38.936Z,24.48
2018-05-25T00:45:06.448Z,24.10
2018-05-25T00:47:33.998Z,24.87
2018-05-25T00:50:01.540Z,24.12
2018-05-25T00:52:29.040Z,25.12
2018-05-25T00:55:08.479Z,24.83
2018-05-25T00:57:35.991Z,25.20
2018-05-25T01:00:03.545Z,24.65
2018-05-25T01:02:31.081Z,24.58
2018-05-25T01:04:59.346Z,24.45
2018-05-25T01:07:27.651Z,24.50
2018-05-25T01:09:55.152Z,26.27
2018-05-25T01:12:22.650Z,25.40
2018-05-25T01:14:50.917Z,25.73
2018-05-25T01:17:19.183Z,26.40
2018-05-25T01:19:46.704Z,25.90
2018-05-25T01:22:14.232Z,26.65
2018-05-25T01:24:41.735Z,25.75
2018-05-25T01:27:09.240Z,25.65
2018-05-25T01:29:36.751Z,24.93
2018-05-25T01:32:04.267Z,26.00
2018-05-25T01:34:31.779Z,26.70
2018-05-25T01:37:00.050Z,26.23
2018-05-25T01:39:27.651Z,25.98
2018-05-25T01:41:55.155Z,25.52
2018-05-25T01:44:22.668Z,26.50
2018-05-25T01:46:50.179Z,26.17
2018-05-25T01:49:17.696Z,26.60
2018-05-25T01:51:45.207Z,25.48
2018-05-25T01:54:12.705Z,25.60
2018-05-25T01:56:40.205Z,27.80
2018-05-25T01:59:08.512Z,25.80
2018-05-25T02:01:36.070Z,26.40
2018-05-25T02:04:03.563Z,26.55
2018-05-25T02:06:31.075Z,26.70
2018-05-25T02:08:58.576Z,27.10
2018-05-25T02:11:26.082Z,27.23
2018-05-25T02:13:54.359Z,26.70
2018-05-25T02:16:22.641Z,27.13
2018-05-25T02:18:50.905Z,26.75
2018-05-25T02:21:19.170Z,26.75
2018-05-25T02:23:46.720Z,26.48
2018-05-25T02:26:14.222Z,27.08
2018-05-25T02:28:41.729Z,27.77
2018-05-25T02:31:09.355Z,28.70
2018-05-25T02:33:36.876Z,27.90
2018-05-25T02:36:05.168Z,28.83
2018-05-25T02:38:32.803Z,27.90
2018-05-25T02:41:00.303Z,28.77
2018-05-25T02:43:27.850Z,29.12
2018-05-25T02:45:55.349Z,29.92
2018-05-25T02:48:22.862Z,28.17
2018-05-25T02:50:50.365Z,28.80
2018-05-25T02:53:17.866Z,29.20
2018-05-25T02:55:46.166Z,29.10
2018-05-25T02:58:13.720Z,29.95
2018-05-25T03:00:41.273Z,30.12
2018-05-25T03:03:08.780Z,30.40
2018-05-25T03:05:36.310Z,30.35
2018-05-25T03:08:03.824Z,30.10
2018-05-25T03:10:32.110Z,30.10
2018-05-25T03:13:00.386Z,29.35
2018-05-25T03:15:28.663Z,28.52
2018-05-25T03:17:56.930Z,28.70
2018-05-25T03:20:25.224Z,28.65
2018-05-25T03:22:53.501Z,28.87
2018-05-25T03:25:21.002Z,28.95
2018-05-25T03:27:48.507Z,29.43
2018-05-25T03:30:16.787Z,29.17
2018-05-25T03:32:45.064Z,29.87
2018-05-25T03:35:13.328Z,29.02
2018-05-25T03:37:41.602Z,28.25
2018-05-25T03:40:09.863Z,29.40
2018-05-25T03:42:37.378Z,28.75
2018-05-25T03:45:04.875Z,28.92
2018-05-25T03:47:32.470Z,28.90
2018-05-25T03:50:00.740Z,28.00
2018-05-25T03:52:29.008Z,28.27
2018-05-25T03:54:57.279Z,28.40
2018-05-25T03:57:24.782Z,28.80
2018-05-25T04:00:04.025Z,27.10
2018-05-25T04:02:31.527Z,28.75
2018-05-25T04:04:59.046Z,27.10
2018-05-25T04:07:26.553Z,28.87
2018-05-25T04:09:54.835Z,27.70
2018-05-25T04:12:23.105Z,28.00
2018-05-25T04:14:51.388Z,28.73
2018-05-25T04:17:19.653Z,29.27
2018-05-25T04:19:47.910Z,29.43
2018-05-25T04:22:15.423Z,28.50
2018-05-25T04:24:42.971Z,27.60
2018-05-25T04:27:10.486Z,27.55
2018-05-25T04:29:37.986Z,27.52
2018-05-25T04:32:05.497Z,26.30
2018-05-25T04:34:33.006Z,26.60
2018-05-25T04:37:00.535Z,25.52
2018-05-25T04:39:28.822Z,26.35
2018-05-25T04:41:57.107Z,26.00
2018-05-25T04:44:24.614Z,25.95
2018-05-25T04:46:52.120Z,25.20
2018-05-25T04:49:19.631Z,25.57
2018-05-25T04:51:47.146Z,25.85
2018-05-25T04:54:14.662Z,25.48
2018-05-25T04:56:42.176Z,24.45
2018-05-25T04:59:09.677Z,23.53
2018-05-25T05:01:38.742Z,24.48
2018-05-25T05:04:06.254Z,22.90
2018-05-25T05:06:34.522Z,23.48
2018-05-25T05:09:02.823Z,22.58
2018-05-25T05:11:30.337Z,22.87
2018-05-25T05:13:57.935Z,22.55
2018-05-25T05:16:25.499Z,22.13
2018-05-25T05:18:53.010Z,20.80
2018-05-25T05:21:20.518Z,23.00
2018-05-25T05:23:48.024Z,22.30
2018-05-25T05:26:15.535Z,20.85
2018-05-25T05:28:43.096Z,21.17
2018-05-25T05:31:10.608Z,21.48
2018-05-25T05:33:38.169Z,20.88
2018-05-25T05:36:05.640Z,21.00
2018-05-25T05:38:33.146Z,19.93
2018-05-25T05:41:00.696Z,20.85
2018-05-25T05:43:28.201Z,19.75
2018-05-25T05:45:55.725Z,20.73
2018-05-25T05:48:23.995Z,19.47
2018-05-25T05:50:51.551Z,18.80
2018-05-25T05:53:19.102Z,19.10
2018-05-25T05:55:46.662Z,18.27
2018-05-25T05:58:14.169Z,18.30
2018-05-25T06:00:41.686Z,19.40
2018-05-25T06:03:09.190Z,18.37
2018-05-25T06:05:36.696Z,18.65
2018-05-25T06:08:04.245Z,16.70
2018-05-25T06:10:31.763Z,16.43
2018-05-25T06:12:59.355Z,17.80
2018-05-25T06:15:27.618Z,17.02
2018-05-25T06:17:55.946Z,16.67
2018-05-25T06:20:23.472Z,16.23
2018-05-25T06:22:51.028Z,15.70
2018-05-25T06:25:19.336Z,15.13
2018-05-25T06:27:46.862Z,15.45
2018-05-25T06:30:14.428Z,16.27
2018-05-25T06:32:41.936Z,15.73
2018-05-25T06:35:09.448Z,17.87
2018-05-25T06:37:36.998Z,17.35
2018-05-25T06:40:04.515Z,16.00
2018-05-25T06:42:32.017Z,14.00
2018-05-25T06:44:59.517Z,13.90
2018-05-25T06:47:27.026Z,13.70
2018-05-25T06:49:54.552Z,13.45
2018-05-25T06:52:22.075Z,13.95
2018-05-25T06:54:49.619Z,13.15
2018-05-25T06:57:17.144Z,13.65
2018-05-25T06:59:44.644Z,14.73
2018-05-25T07:02:12.150Z,14.50
2018-05-25T07:04:39.656Z,14.30
2018-05-25T07:07:07.163Z,14.20
2018-05-25T07:09:34.660Z,14.73
2018-05-25T07:12:02.190Z,14.15
2018-05-25T07:14:29.697Z,15.45
2018-05-25T07:16:57.196Z,14.98
2018-05-25T07:19:24.719Z,14.45
2018-05-25T07:21:52.223Z,14.95
2018-05-25T07:24:20.516Z,15.63
2018-05-25T07:26:48.823Z,14.10
2018-05-25T07:29:16.367Z,14.18
2018-05-25T07:31:44.019Z,14.90
2018-05-25T07:34:12.295Z,14.90
2018-05-25T07:36:40.567Z,19.23
2018-05-25T07:39:08.852Z,13.88
2018-05-25T07:41:36.365Z,13.45
2018-05-25T07:44:03.871Z,15.50
2018-05-25T07:46:31.424Z,12.70
2018-05-25T07:48:58.927Z,12.50
2018-05-25T07:51:26.442Z,12.18
2018-05-25T07:53:53.966Z,12.10
2018-05-25T07:56:21.471Z,12.80
2018-05-25T07:58:48.976Z,11.20
2018-05-25T08:01:16.478Z,12.00
2018-05-25T08:03:43.975Z,12.80
2018-05-25T08:06:11.482Z,12.05
2018-05-25T08:08:39.755Z,11.50
2018-05-25T08:11:08.032Z,10.82
2018-05-25T08:13:36.294Z,10.85
2018-05-25T08:16:04.563Z,11.90
2018-05-25T08:18:32.092Z,12.65
2018-05-25T08:20:59.614Z,11.63
2018-05-25T08:23:27.112Z,11.55
2018-05-25T08:25:54.610Z,9.43
2018-05-25T08:28:22.894Z,10.05
2018-05-25T08:30:51.182Z,10.80
2018-05-25T08:33:18.735Z,11.45
2018-05-25T08:35:46.242Z,10.60
2018-05-25T08:38:13.751Z,11.15
2018-05-25T08:40:41.264Z,11.38
2018-05-25T08:43:08.758Z,10.98
2018-05-25T08:45:37.063Z,11.20
2018-05-25T08:48:04.560Z,10.45
2018-05-25T08:50:32.164Z,10.93
2018-05-25T08:52:59.672Z,11.30
2018-05-25T08:55:27.171Z,11.23
2018-05-25T08:57:55.473Z,11.80
2018-05-25T09:00:22.984Z,10.80
2018-05-25T09:02:51.368Z,11.10
2018-05-25T09:05:18.812Z,10.50
2018-05-25T09:07:46.312Z,9.53
2018-05-25T09:10:13.828Z,9.30
2018-05-25T09:12:41.333Z,9.90
2018-05-25T09:15:08.840Z,8.27
2018-05-25T09:17:36.359Z,9.50
2018-05-25T09:20:03.867Z,9.00
2018-05-25T09:22:31.458Z,10.13
2018-05-25T09:24:58.956Z,9.98
2018-05-25T09:27:26.463Z,9.70
2018-05-25T09:29:54.743Z,10.50
2018-05-25T09:32:23.063Z,11.40
2018-05-25T09:34:50.575Z,11.30
2018-05-25T09:37:18.843Z,10.98
2018-05-25T09:39:47.260Z,8.63
2018-05-25T09:42:14.779Z,8.70
2018-05-25T09:44:43.122Z,9.77
2018-05-25T09:47:11.331Z,9.97
2018-05-25T09:49:39.629Z,10.20
2018-05-25T09:52:07.134Z,9.80
2018-05-25T09:54:34.644Z,10.80
2018-05-25T09:57:02.216Z,9.80
2018-05-25T09:59:29.714Z,9.60
2018-05-25T10:01:57.215Z,10.45
2018-05-25T10:04:24.782Z,10.98
2018-05-25T10:06:52.291Z,11.10
2018-05-25T10:09:20.560Z,9.17
2018-05-25T10:11:48.085Z,9.02
2018-05-25T10:14:15.591Z,9.82
2018-05-25T10:16:43.098Z,9.60
2018-05-25T10:19:10.603Z,8.80
2018-05-25T10:21:38.105Z,9.30
2018-05-25T10:24:05.608Z,9.77
2018-05-25T10:26:33.115Z,9.97
2018-05-25T10:29:00.680Z,10.20
2018-05-25T10:31:28.199Z,10.30
2018-05-25T10:33:57.226Z,10.05
2018-05-25T10:36:24.742Z,10.40
2018-05-25T10:38:53.006Z,9.55
2018-05-25T10:41:20.506Z,9.60
2018-05-25T10:43:48.788Z,9.45
2018-05-25T10:46:16.303Z,9.48
2018-05-25T10:48:43.851Z,9.60
2018-05-25T10:51:11.322Z,9.98
2018-05-25T10:53:38.826Z,12.93
2018-05-25T10:56:06.347Z,13.55
2018-05-25T10:58:33.945Z,15.48
2018-05-25T11:01:02.211Z,13.65
2018-05-25T11:03:30.496Z,15.35
2018-05-25T11:05:58.794Z,14.80
2018-05-25T11:08:26.291Z,18.27
2018-05-25T11:10:53.806Z,9.30
2018-05-25T11:13:21.322Z,12.25
2018-05-25T11:15:48.832Z,10.20
2018-05-25T11:18:16.345Z,8.85
2018-05-25T11:20:43.843Z,9.30
2018-05-25T11:23:11.351Z,11.30
2018-05-25T11:25:38.867Z,10.75
2018-05-25T11:28:06.372Z,10.90
2018-05-25T11:30:33.895Z,8.23
2018-05-25T11:33:01.386Z,9.55
2018-05-25T11:35:28.900Z,9.20
2018-05-25T11:37:56.396Z,9.57
2018-05-25T11:40:23.906Z,10.35
2018-05-25T11:42:51.407Z,9.70
2018-05-25T11:45:18.909Z,9.52
2018-05-25T11:47:46.422Z,10.40
2018-05-25T11:50:14.031Z,10.23
2018-05-25T11:52:41.534Z,8.40
2018-05-25T11:55:09.032Z,8.35
2018-05-25T11:57:37.317Z,8.13
2018-05-25T12:00:04.821Z,8.50
2018-05-25T12:02:32.321Z,9.13
2018-05-25T12:05:00.598Z,8.80
2018-05-25T12:07:28.876Z,10.27
2018-05-25T12:09:57.172Z,10.50
2018-05-25T12:12:24.675Z,9.90
2018-05-25T12:14:52.184Z,9.00
2018-05-25T12:17:19.682Z,8.75
2018-05-25T12:19:47.206Z,9.63
2018-05-25T12:22:15.471Z,8.77
2018-05-25T12:24:42.982Z,9.27
2018-05-25T12:27:10.488Z,8.40
2018-05-25T12:29:37.995Z,8.87
2018-05-25T12:32:05.508Z,8.67
2018-05-25T12:34:33.018Z,9.07
2018-05-25T12:37:00.524Z,8.05
2018-05-25T12:39:28.026Z,8.60
2018-05-25T12:41:55.615Z,7.30
2018-05-25T12:44:23.896Z,7.60
2018-05-25T12:46:52.155Z,7.45
2018-05-25T12:49:19.659Z,8.33
2018-05-25T12:51:47.164Z,7.53
2018-05-25T12:54:14.666Z,7.40
2018-05-25T12:56:42.183Z,8.50
2018-05-25T12:59:09.670Z,8.20
2018-05-25T13:01:37.934Z,7.60
2018-05-25T13:04:06.208Z,10.02
2018-05-25T13:06:34.486Z,8.05
2018-05-25T13:09:02.774Z,7.35
2018-05-25T13:11:31.034Z,7.95
2018-05-25T13:13:59.296Z,7.50
2018-05-25T13:16:26.810Z,7.72
2018-05-25T13:18:54.311Z,7.30
2018-05-25T13:21:21.811Z,7.25
2018-05-25T13:23:49.361Z,7.12
2018-05-25T13:26:17.632Z,7.90
2018-05-25T13:28:45.907Z,7.30
2018-05-25T13:31:14.223Z,7.20
2018-05-25T13:33:42.495Z,7.10
2018-05-25T13:36:09.990Z,7.27
2018-05-25T13:38:37.500Z,6.47
2018-05-25T13:41:04.995Z,6.20
2018-05-25T13:43:32.491Z,5.73
2018-05-25T13:46:00.754Z,6.50
2018-05-25T13:48:28.262Z,5.90
2018-05-25T13:50:55.786Z,5.60
2018-05-25T13:53:24.171Z,6.00
2018-05-25T13:58:29.654Z,6.10
2018-05-25T14:00:57.893Z,4.87
2018-05-25T14:03:26.150Z,5.30
2018-05-25T14:05:53.655Z,5.53
2018-05-25T14:08:21.152Z,5.47
2018-05-25T14:10:48.653Z,5.07
2018-05-25T14:13:16.159Z,5.18
2018-05-25T14:15:43.655Z,5.20
2018-05-25T14:18:11.142Z,5.00
2018-05-25T14:20:38.815Z,4.80
2018-05-25T14:23:06.328Z,5.20
2018-05-25T14:25:33.825Z,5.60
2018-05-25T14:28:01.379Z,5.57
2018-05-25T14:30:28.935Z,4.12
2018-05-25T14:32:56.451Z,4.70
2018-05-25T14:35:25.451Z,4.47
2018-05-25T14:37:52.958Z,7.80
2018-05-25T14:40:20.447Z,6.80
2018-05-25T14:42:48.052Z,4.90
2018-05-25T14:45:15.571Z,5.35
2018-05-25T14:47:43.075Z,6.15
2018-05-25T14:50:10.583Z,5.70
2018-05-25T14:52:38.125Z,5.87
2018-05-25T14:55:05.614Z,5.18
2018-05-25T14:57:33.124Z,5.22
2018-05-25T15:00:00.627Z,4.70
2018-05-25T15:02:28.128Z,4.10
2018-05-25T15:04:55.630Z,4.18
2018-05-25T15:07:23.137Z,4.82
2018-05-25T15:09:51.400Z,4.60
2018-05-25T15:12:19.708Z,4.70
2018-05-25T15:14:47.207Z,4.57
2018-05-25T15:17:15.474Z,6.40
2018-05-25T15:19:42.971Z,4.15
2018-05-25T15:22:11.238Z,4.12
2018-05-25T15:24:39.506Z,4.73
2018-05-25T15:27:07.008Z,5.30
2018-05-25T15:29:34.548Z,5.00
2018-05-25T15:32:02.818Z,6.15
2018-05-25T15:34:31.111Z,5.32
2018-05-25T15:36:58.607Z,6.30
2018-05-25T15:39:26.111Z,5.62
2018-05-25T15:41:54.396Z,5.90
2018-05-25T15:44:21.903Z,6.00
2018-05-25T15:46:49.402Z,7.45
2018-05-25T15:49:17.683Z,6.30
2018-05-25T15:51:45.943Z,6.32
2018-05-25T15:54:14.198Z,6.43
2018-05-25T15:56:41.696Z,6.30
2018-05-25T15:59:09.195Z,5.90
2018-05-25T16:01:36.695Z,5.50
2018-05-25T16:04:04.951Z,5.20
2018-05-25T16:06:32.462Z,5.12
2018-05-25T16:09:00.731Z,5.55
2018-05-25T16:11:28.233Z,5.55
2018-05-25T16:13:55.738Z,5.60
2018-05-25T16:16:23.246Z,5.90
2018-05-25T16:18:50.744Z,5.22
2018-05-25T16:21:19.006Z,5.30
2018-05-25T16:23:47.278Z,5.80
2018-05-25T16:26:14.779Z,8.00
2018-05-25T16:28:42.279Z,7.12
2018-05-25T16:31:09.800Z,10.20
2018-05-25T16:33:37.313Z,6.40
2018-05-25T16:36:05.578Z,7.18
2018-05-25T16:38:33.086Z,6.60
2018-05-25T16:41:01.355Z,5.60
2018-05-25T16:43:28.851Z,5.95
2018-05-25T16:45:56.352Z,6.10
2018-05-25T16:48:24.635Z,4.90
2018-05-25T16:50:52.135Z,5.18
2018-05-25T16:53:19.631Z,5.28
2018-05-25T16:55:47.143Z,5.20
2018-05-25T16:58:14.641Z,4.93
2018-05-25T17:00:42.140Z,5.00
2018-05-25T17:03:09.686Z,5.40
2018-05-25T17:05:37.163Z,5.23
2018-05-25T17:08:04.703Z,5.70
2018-05-25T17:10:32.239Z,5.50
2018-05-25T17:12:59.751Z,5.90
2018-05-25T17:15:27.261Z,6.70
2018-05-25T17:17:55.543Z,5.97
2018-05-25T17:20:23.814Z,5.43
2018-05-25T17:22:52.083Z,5.80
2018-05-25T17:25:20.355Z,5.53
2018-05-25T17:27:47.853Z,5.30
2018-05-25T17:30:15.357Z,5.70
2018-05-25T17:32:42.965Z,5.80
2018-05-25T17:35:10.472Z,6.50
2018-05-25T17:37:39.484Z,5.70
2018-05-25T17:40:06.987Z,5.70
2018-05-25T17:42:34.487Z,6.23
2018-05-25T17:45:01.991Z,5.47
2018-05-25T17:47:29.539Z,5.45
2018-05-25T17:49:57.055Z,6.20
2018-05-25T17:52:24.568Z,4.95
2018-05-25T17:54:52.086Z,5.95
2018-05-25T17:57:19.623Z,5.57
2018-05-25T17:59:47.138Z,5.65
2018-05-25T18:02:14.696Z,5.62
2018-05-25T18:04:42.195Z,6.00
2018-05-25T18:07:09.691Z,5.10
2018-05-25T18:09:37.956Z,5.32
2018-05-25T18:12:05.456Z,6.00
2018-05-25T18:14:32.951Z,5.77
2018-05-25T18:17:00.470Z,5.35
2018-05-25T18:19:27.977Z,5.20
2018-05-25T18:21:55.486Z,5.90
2018-05-25T18:24:22.990Z,4.85
2018-05-25T18:26:50.597Z,5.35
2018-05-25T18:29:18.112Z,6.25
2018-05-25T18:31:46.375Z,4.90
2018-05-25T18:34:13.889Z,5.70
2018-05-25T18:36:41.396Z,5.72
2018-05-25T18:39:08.904Z,6.10
2018-05-25T18:41:36.469Z,5.40
2018-05-25T18:44:03.977Z,5.50
2018-05-25T18:46:31.480Z,6.05
2018-05-25T18:48:58.988Z,5.80
2018-05-25T18:51:26.589Z,8.93
2018-05-25T18:54:06.779Z,6.37
2018-05-25T18:56:34.311Z,6.30
2018-05-25T18:59:01.811Z,5.70
2018-05-25T19:01:29.307Z,6.53
2018-05-25T19:03:57.588Z,7.75
2018-05-25T19:06:25.866Z,6.90
2018-05-25T19:08:54.139Z,6.00
2018-05-25T19:11:22.397Z,5.15
2018-05-25T19:13:49.919Z,6.05
2018-05-25T19:16:17.447Z,5.90
2018-05-25T19:18:44.956Z,6.20
2018-05-25T19:21:12.565Z,5.90
2018-05-25T19:23:40.486Z,6.10
2018-05-25T19:26:07.991Z,5.70
2018-05-25T19:28:35.510Z,6.07
2018-05-25T19:31:03.015Z,5.97
2018-05-25T19:33:30.521Z,6.47
2018-05-25T19:35:58.006Z,6.40
2018-05-25T19:38:26.300Z,6.60
2018-05-25T19:40:53.795Z,6.50
2018-05-25T19:43:21.291Z,6.85
2018-05-25T19:45:49.594Z,6.00
2018-05-25T19:48:17.152Z,6.75
2018-05-25T19:50:44.663Z,7.25
2018-05-25T19:53:12.165Z,7.77
2018-05-25T19:55:39.678Z,9.13
2018-05-25T19:58:07.245Z,7.57
2018-05-25T20:00:34.740Z,7.25
2018-05-25T20:03:02.231Z,8.00
2018-05-25T20:05:29.739Z,8.85
2018-05-25T20:07:58.035Z,8.45
2018-05-25T20:10:25.536Z,7.60
2018-05-25T20:12:53.056Z,7.40
2018-05-25T20:15:20.560Z,7.20
2018-05-25T20:17:48.064Z,7.00
2018-05-25T20:20:16.406Z,7.80
2018-05-25T20:22:43.906Z,7.50
2018-05-25T20:25:11.446Z,8.00
2018-05-25T20:27:39.716Z,7.45
2018-05-25T20:30:07.206Z,7.15
2018-05-25T20:32:34.715Z,7.07
2018-05-25T20:35:02.225Z,7.45
2018-05-25T20:37:29.736Z,8.02
2018-05-25T20:39:58.737Z,8.13
2018-05-25T20:42:27.016Z,8.20
2018-05-25T20:44:55.491Z,7.80
2018-05-25T20:47:23.000Z,8.13
2018-05-25T20:49:50.493Z,7.63
2018-05-25T20:52:18.004Z,7.80
2018-05-25T20:54:45.562Z,7.90
2018-05-25T20:57:13.109Z,8.73
2018-05-25T20:59:40.620Z,8.70
2018-05-25T21:02:08.116Z,8.50
2018-05-25T21:04:36.390Z,8.90
2018-05-25T21:07:04.650Z,8.70
2018-05-25T21:09:32.151Z,8.80
2018-05-25T21:11:59.713Z,8.77
2018-05-25T21:14:27.266Z,9.43
2018-05-25T21:16:54.770Z,8.90
2018-05-25T21:19:22.276Z,8.70
2018-05-25T21:21:50.555Z,8.98
2018-05-25T21:24:18.058Z,9.30
2018-05-25T21:26:45.563Z,8.90
2018-05-25T21:29:13.842Z,8.75
2018-05-25T21:31:42.113Z,9.40
2018-05-25T21:34:10.386Z,9.90
2018-05-25T21:36:38.669Z,9.43
2018-05-25T21:39:06.930Z,10.27
2018-05-25T21:41:35.192Z,9.90
2018-05-25T21:44:02.705Z,9.90
2018-05-25T21:46:30.257Z,10.18
2018-05-25T21:48:58.515Z,9.75
2018-05-25T21:51:26.792Z,10.43
2018-05-25T21:53:55.092Z,10.00
2018-05-25T21:56:22.592Z,10.20
2018-05-25T21:58:50.110Z,9.90
2018-05-25T22:01:17.614Z,10.32
2018-05-25T22:03:45.116Z,10.27
2018-05-25T22:06:12.675Z,10.02
2018-05-25T22:08:40.335Z,10.82
2018-05-25T22:11:07.848Z,10.85
2018-05-25T22:13:35.347Z,10.98
2018-05-25T22:16:02.848Z,11.10
2018-05-25T22:18:30.358Z,11.15
2018-05-25T22:20:57.938Z,11.27
2018-05-25T22:23:25.445Z,11.70
2018-05-25T22:25:53.728Z,10.73
2018-05-25T22:28:21.228Z,11.10
2018-05-25T22:30:48.738Z,11.50
2018-05-25T22:33:16.279Z,11.60
2018-05-25T22:35:43.800Z,11.80
2018-05-25T22:38:11.298Z,12.70
2018-05-25T22:40:38.807Z,12.15
2018-05-25T22:43:18.086Z,12.90
2018-05-25T22:45:57.608Z,13.10
2018-05-25T22:48:37.118Z,13.52
2018-05-25T22:51:16.592Z,13.00
2018-05-25T22:53:49.290Z,13.48
2018-05-25T22:56:16.792Z,13.23
2018-05-25T22:58:44.312Z,13.10
2018-05-25T23:01:11.834Z,13.88
2018-05-25T23:03:39.375Z,12.80
2018-05-25T23:06:06.879Z,13.38
2018-05-25T23:08:34.383Z,14.97
2018-05-25T23:11:01.904Z,14.60
2018-05-25T23:13:29.413Z,13.95
2018-05-25T23:15:56.930Z,13.68
2018-05-25T23:18:25.936Z,14.20
2018-05-25T23:20:54.223Z,15.20
2018-05-25T23:23:22.482Z,14.95
2018-05-25T23:25:50.755Z,14.43
2018-05-25T23:28:18.266Z,14.70
2018-05-25T23:30:45.775Z,14.68
2018-05-25T23:33:14.038Z,14.73
2018-05-25T23:35:41.543Z,17.10
2018-05-25T23:38:09.048Z,17.57
2018-05-25T23:40:36.588Z,17.80
2018-05-25T23:43:04.194Z,17.48
2018-05-25T23:45:32.456Z,17.60
2018-05-25T23:47:59.963Z,17.23
2018-05-25T23:50:27.465Z,17.07
2018-05-25T23:52:55.069Z,17.12
2018-05-25T23:55:22.566Z,16.90
2018-05-25T23:57:50.066Z,17.60
